createdAt,value
2023-02-23T00:04:26.466Z,98005.47
2023-02-23T00:06:53.867Z,98000.03
2023-02-23T00:09:28.074Z,98001.59
2023-02-23T00:11:57.445Z,98005.59
2023-02-23T00:14:28.306Z,98000.31
2023-02-23T00:16:56.403Z,97993.50
2023-02-23T00:19:25.125Z,97990.53
2023-02-23T00:21:53.127Z,97991.75
2023-02-23T00:24:20.043Z,97992.44
2023-02-23T00:26:48.230Z,97995.63
2023-02-23T00:29:17.576Z,97980.28
2023-02-23T00:31:45.689Z,97978.75
2023-02-23T00:34:14.665Z,97981.00
2023-02-23T00:36:43.052Z,97976.94
2023-02-23T00:39:21.691Z,97986.00
2023-02-23T00:41:49.449Z,97980.41
2023-02-23T00:44:16.625Z,97984.34
2023-02-23T00:46:44.826Z,97982.50
2023-02-23T00:49:13.576Z,97989.97
2023-02-23T00:51:40.373Z,97984.41
2023-02-23T00:54:08.017Z,97984.91
2023-02-23T00:56:34.922Z,97991.19
2023-02-23T00:59:01.554Z,97981.69
2023-02-23T01:01:28.274Z,97978.63
2023-02-23T01:03:54.930Z,97982.59
2023-02-23T01:09:05.150Z,97980.03
2023-02-23T01:11:31.740Z,97976.63
2023-02-23T01:14:00.705Z,97975.44
2023-02-23T01:16:30.296Z,97974.22
2023-02-23T01:19:00.016Z,97976.75
2023-02-23T01:21:32.666Z,97975.97
2023-02-23T01:23:59.578Z,97974.28
2023-02-23T01:26:29.489Z,97974.22
2023-02-23T01:28:58.464Z,97979.97
2023-02-23T01:31:25.795Z,97985.03
2023-02-23T01:33:59.878Z,97991.09
2023-02-23T01:36:29.101Z,97980.25
2023-02-23T01:38:57.186Z,97961.94
2023-02-23T01:41:26.965Z,97964.31
2023-02-23T01:44:01.319Z,97967.50
2023-02-23T01:46:30.767Z,97975.66
2023-02-23T01:48:57.700Z,97966.66
2023-02-23T01:51:30.350Z,97965.84
2023-02-23T01:54:02.476Z,97965.94
2023-02-23T01:56:33.080Z,97964.88
2023-02-23T01:59:05.853Z,97956.50
2023-02-23T02:01:32.526Z,97963.72
2023-02-23T02:04:06.846Z,97958.06
2023-02-23T02:06:35.983Z,97959.22
2023-02-23T02:09:10.407Z,97958.63
2023-02-23T02:11:37.536Z,97954.03
2023-02-23T02:14:13.194Z,97956.31
2023-02-23T02:16:45.062Z,97949.75
2023-02-23T02:19:18.802Z,97946.75
2023-02-23T02:21:48.312Z,97950.13
2023-02-23T02:24:52.520Z,97944.91
2023-02-23T02:27:29.486Z,97947.94
2023-02-23T02:30:05.544Z,97951.88
2023-02-23T02:32:47.740Z,97945.69
2023-02-23T02:35:41.758Z,97946.25
2023-02-23T02:38:29.804Z,97942.66
2023-02-23T02:41:13.726Z,97948.03
2023-02-23T02:43:51.056Z,97941.31
2023-02-23T02:46:25.064Z,97937.50
2023-02-23T02:49:04.069Z,97938.72
2023-02-23T02:51:49.243Z,97945.91
2023-02-23T02:54:31.991Z,97936.13
2023-02-23T02:57:02.312Z,97940.22
2023-02-23T02:59:47.415Z,97941.44
2023-02-23T03:02:35.670Z,97942.31
2023-02-23T03:05:21.079Z,97931.00
2023-02-23T03:08:16.366Z,97932.97
2023-02-23T03:11:31.625Z,97931.78
2023-02-23T03:14:54.374Z,97928.69
2023-02-23T03:18:04.397Z,97929.84
2023-02-23T03:20:52.675Z,97925.56
2023-02-23T03:24:03.066Z,97928.38
2023-02-23T03:26:59.595Z,97924.53
2023-02-23T03:30:18.289Z,97921.13
2023-02-23T03:33:09.512Z,97933.34
2023-02-23T03:36:13.889Z,97932.03
2023-02-23T03:39:03.022Z,97925.56
2023-02-23T03:41:52.196Z,97939.69
2023-02-23T03:44:44.154Z,97933.91
2023-02-23T03:47:31.482Z,97935.19
2023-02-23T03:50:19.771Z,97928.19
2023-02-23T03:53:11.223Z,97933.22
2023-02-23T03:55:59.387Z,97931.59
2023-02-23T03:58:55.905Z,97933.47
2023-02-23T04:01:44.270Z,97936.66
2023-02-23T04:04:30.046Z,97932.81
2023-02-23T04:07:18.086Z,97929.47
2023-02-23T04:10:03.458Z,97934.97
2023-02-23T04:13:03.587Z,97937.53
2023-02-23T04:15:39.216Z,97930.78
2023-02-23T04:18:08.197Z,97936.22
2023-02-23T04:20:35.358Z,97936.22
2023-02-23T04:23:02.157Z,97935.47
2023-02-23T04:28:03.635Z,97938.47
2023-02-23T04:30:30.453Z,97935.53
2023-02-23T04:32:58.766Z,97933.03
2023-02-23T04:35:27.893Z,97938.94
2023-02-23T04:37:54.983Z,97944.22
2023-02-23T04:40:24.194Z,97949.97
2023-02-23T04:42:51.213Z,97948.16
2023-02-23T04:45:17.768Z,97948.28
2023-02-23T04:47:44.855Z,97946.00
2023-02-23T04:50:12.914Z,97947.06
2023-02-23T04:52:39.817Z,97944.94
2023-02-23T04:55:09.088Z,97941.31
2023-02-23T04:57:35.812Z,97946.31
2023-02-23T05:00:04.479Z,97941.31
2023-02-23T05:02:32.155Z,97948.22
2023-02-23T05:04:58.805Z,97942.53
2023-02-23T05:07:25.509Z,97946.84
2023-02-23T05:09:52.105Z,97949.13
2023-02-23T05:12:18.663Z,97942.47
2023-02-23T05:14:45.185Z,97943.16
2023-02-23T05:17:11.696Z,97944.25
2023-02-23T05:19:38.273Z,97940.06
2023-02-23T05:22:04.809Z,97944.66
2023-02-23T05:24:31.409Z,97944.59
2023-02-23T05:26:58.960Z,97943.16
2023-02-23T05:29:25.528Z,97944.69
2023-02-23T05:31:52.171Z,97948.59
2023-02-23T05:34:18.834Z,97952.28
2023-02-23T05:36:45.367Z,97951.06
2023-02-23T05:39:11.899Z,97944.22
2023-02-23T05:41:38.448Z,97949.63
2023-02-23T05:44:05.181Z,97948.03
2023-02-23T05:46:31.945Z,97956.28
2023-02-23T05:49:00.905Z,97945.72
2023-02-23T05:51:30.114Z,97951.13
2023-02-23T05:53:56.644Z,97959.59
2023-02-23T05:56:23.561Z,97951.72
2023-02-23T05:58:52.064Z,97952.03
2023-02-23T06:01:19.455Z,97953.00
2023-02-23T06:03:47.201Z,97952.88
2023-02-23T06:06:14.325Z,97953.63
2023-02-23T06:08:41.305Z,97956.06
2023-02-23T06:11:08.214Z,97950.69
2023-02-23T06:13:34.948Z,97957.34
2023-02-23T06:16:02.001Z,97963.09
2023-02-23T06:18:29.444Z,97962.84
2023-02-23T06:20:59.490Z,97959.88
2023-02-23T06:23:26.098Z,97965.41
2023-02-23T06:25:52.614Z,97966.66
2023-02-23T06:28:19.160Z,97966.97
2023-02-23T06:30:46.812Z,97969.72
2023-02-23T06:33:13.438Z,97976.34
2023-02-23T06:35:40.080Z,97980.38
2023-02-23T06:38:06.832Z,97976.94
2023-02-23T06:40:33.648Z,97975.78
2023-02-23T06:43:00.666Z,97970.41
2023-02-23T06:45:27.187Z,97971.22
2023-02-23T06:47:53.945Z,97977.47
2023-02-23T06:50:20.722Z,97975.59
2023-02-23T06:52:47.349Z,97986.16
2023-02-23T06:55:14.712Z,97981.03
2023-02-23T06:57:41.667Z,97987.69
2023-02-23T07:00:15.268Z,97991.06
2023-02-23T07:02:42.149Z,97994.47
2023-02-23T07:05:09.215Z,97991.47
2023-02-23T07:07:36.122Z,97997.69
2023-02-23T07:10:02.878Z,98000.09
2023-02-23T07:12:30.297Z,97998.16
2023-02-23T07:14:57.008Z,98001.56
2023-02-23T07:17:24.059Z,97993.22
2023-02-23T07:19:50.563Z,97998.97
2023-02-23T07:22:17.086Z,98005.94
2023-02-23T07:24:43.677Z,98005.97
2023-02-23T07:27:10.190Z,98010.47
2023-02-23T07:29:36.755Z,98014.41
2023-02-23T07:32:03.552Z,98017.47
2023-02-23T07:34:30.125Z,98010.66
2023-02-23T07:36:56.750Z,98017.56
2023-02-23T07:39:23.265Z,98015.72
2023-02-23T07:44:23.088Z,98021.63
2023-02-23T07:49:22.942Z,98012.38
2023-02-23T07:54:21.999Z,98012.56
2023-02-23T07:56:48.515Z,98019.59
2023-02-23T07:59:15.406Z,98026.94
2023-02-23T08:01:41.923Z,98021.88
2023-02-23T08:04:08.724Z,98025.91
2023-02-23T08:06:35.339Z,98024.16
2023-02-23T08:09:04.038Z,98032.22
2023-02-23T08:11:31.089Z,98039.97
2023-02-23T08:14:00.363Z,98033.91
2023-02-23T08:16:32.438Z,98026.47
2023-02-23T08:19:01.028Z,98027.25
2023-02-23T08:21:29.638Z,98035.47
2023-02-23T08:26:31.027Z,98035.84
2023-02-23T08:31:36.061Z,98041.03
2023-02-23T08:34:02.835Z,98041.81
2023-02-23T08:39:00.865Z,98037.69
2023-02-23T08:41:27.802Z,98036.59
2023-02-23T08:43:54.462Z,98032.81
2023-02-23T08:46:21.018Z,98033.59
2023-02-23T08:48:47.581Z,98029.84
2023-02-23T08:51:17.328Z,98041.50
2023-02-23T08:53:43.945Z,98038.94
2023-02-23T08:56:11.485Z,98037.75
2023-02-23T08:58:38.002Z,98036.66
2023-02-23T09:01:05.695Z,98035.22
2023-02-23T09:03:35.833Z,98039.66
2023-02-23T09:06:12.838Z,98037.34
2023-02-23T09:08:39.726Z,98045.97
2023-02-23T09:11:06.639Z,98049.00
2023-02-23T09:13:33.313Z,98042.03
2023-02-23T09:15:59.848Z,98051.03
2023-02-23T09:18:28.042Z,98047.47
2023-02-23T09:20:54.577Z,98046.34
2023-02-23T09:23:21.293Z,98047.59
2023-02-23T09:25:47.791Z,98044.03
2023-02-23T09:28:16.320Z,98046.00
2023-02-23T09:30:44.668Z,98052.28
2023-02-23T09:33:12.209Z,98051.16
2023-02-23T09:35:39.868Z,98044.88
2023-02-23T09:40:53.214Z,98049.31
2023-02-23T09:43:45.234Z,98051.59
2023-02-23T09:46:34.092Z,98047.00
2023-02-23T09:49:03.935Z,98055.31
2023-02-23T09:51:37.766Z,98047.94
2023-02-23T09:54:06.175Z,98046.81
2023-02-23T09:56:37.391Z,98048.03
2023-02-23T09:59:12.210Z,98042.56
2023-02-23T10:01:47.756Z,98049.66
2023-02-23T10:04:25.978Z,98049.56
2023-02-23T10:07:21.221Z,98047.28
2023-02-23T10:10:00.275Z,98045.72
2023-02-23T10:12:50.383Z,98054.56
2023-02-23T10:15:45.587Z,98046.88
2023-02-23T10:18:21.622Z,98039.22
2023-02-23T10:21:04.844Z,98048.63
2023-02-23T10:23:42.836Z,98041.72
2023-02-23T10:26:16.325Z,98039.47
2023-02-23T10:28:45.422Z,98040.31
2023-02-23T10:31:27.818Z,98043.88
2023-02-23T10:33:58.727Z,98043.16
2023-02-23T10:36:37.798Z,98042.50
2023-02-23T10:39:07.681Z,98044.44
2023-02-23T10:41:37.054Z,98043.75
2023-02-23T10:46:40.469Z,98047.81
2023-02-23T10:49:14.257Z,98047.81
2023-02-23T10:51:43.216Z,98054.13
2023-02-23T10:54:36.854Z,98055.75
2023-02-23T10:57:05.759Z,98054.91
2023-02-23T10:59:33.196Z,98060.00
2023-02-23T11:02:02.603Z,98051.38
2023-02-23T11:04:35.140Z,98059.22
2023-02-23T11:07:21.656Z,98051.00
2023-02-23T11:09:49.578Z,98049.81
2023-02-23T11:12:29.757Z,98045.50
2023-02-23T11:14:57.679Z,98044.72
2023-02-23T11:17:34.937Z,98043.94
2023-02-23T11:20:07.533Z,98039.22
2023-02-23T11:25:31.804Z,98035.31
2023-02-23T11:27:59.344Z,98033.72
2023-02-23T11:30:37.292Z,98031.75
2023-02-23T11:33:12.166Z,98025.91
2023-02-23T11:35:38.980Z,98025.13
2023-02-23T11:38:22.430Z,98024.34
2023-02-23T11:41:21.359Z,98018.44
2023-02-23T11:46:32.918Z,98017.31
2023-02-23T11:49:22.747Z,98011.44
2023-02-23T11:51:50.878Z,98002.47
2023-02-23T11:54:33.472Z,98005.59
2023-02-23T11:57:02.808Z,97995.41
2023-02-23T11:59:35.174Z,97998.56
2023-02-23T12:02:26.759Z,97996.22
2023-02-23T12:05:06.688Z,97999.34
2023-02-23T12:07:44.609Z,97996.19
2023-02-23T12:10:20.188Z,97996.19
2023-02-23T12:15:40.650Z,97993.38
2023-02-23T12:21:00.693Z,97982.78
2023-02-23T12:23:33.663Z,97981.22
2023-02-23T12:26:09.473Z,97980.03
2023-02-23T12:29:18.209Z,97970.25
2023-02-23T12:31:50.091Z,97973.38
2023-02-23T12:34:27.130Z,97967.06
2023-02-23T12:37:07.605Z,97972.50
2023-02-23T12:39:43.302Z,97966.88
2023-02-23T12:42:38.701Z,97971.94
2023-02-23T12:45:13.549Z,97965.63
2023-02-23T12:48:01.127Z,97970.91
2023-02-23T12:50:35.712Z,97974.31
2023-02-23T12:53:17.163Z,97970.56
2023-02-23T12:55:53.795Z,97963.16
2023-02-23T12:58:38.276Z,97960.56
2023-02-23T13:01:10.949Z,97955.19
2023-02-23T13:03:49.390Z,97953.63
2023-02-23T13:06:35.430Z,97954.84
2023-02-23T13:09:43.473Z,97955.25
2023-02-23T13:12:12.925Z,97952.59
2023-02-23T13:23:06.526Z,97945.97
2023-02-23T13:25:41.882Z,97951.50
2023-02-23T13:28:17.920Z,97944.44
2023-02-23T13:30:47.716Z,97948.81
2023-02-23T13:33:41.865Z,97942.91
2023-02-23T13:36:13.010Z,97961.34
2023-02-23T13:38:55.684Z,97943.31
2023-02-23T13:41:36.309Z,97946.84
2023-02-23T13:44:26.884Z,97939.78
2023-02-23T13:46:56.390Z,97944.13
2023-02-23T13:49:31.738Z,97941.75
2023-02-23T13:52:09.030Z,97939.41
2023-02-23T13:54:36.788Z,97947.25
2023-02-23T13:57:12.484Z,97945.28
2023-02-23T13:59:43.700Z,97944.91
2023-02-23T14:02:34.808Z,97942.19
2023-02-23T14:05:27.862Z,97948.41
2023-02-23T14:08:02.566Z,97940.19
2023-02-23T14:10:38.632Z,97940.19
2023-02-23T14:13:05.172Z,97931.97
2023-02-23T14:15:31.860Z,97931.97
2023-02-23T14:18:22.635Z,97924.16
2023-02-23T14:21:09.634Z,97926.50
2023-02-23T14:24:03.353Z,97927.28
2023-02-23T14:26:29.858Z,97927.66
2023-02-23T14:29:15.053Z,97930.38
2023-02-23T14:31:54.832Z,97917.47
2023-02-23T14:34:24.404Z,97926.88
2023-02-23T14:36:56.645Z,97925.69
2023-02-23T14:39:26.125Z,97921.78
2023-02-23T14:41:59.076Z,97928.03
2023-02-23T14:44:36.477Z,97929.22
2023-02-23T14:49:54.949Z,97936.28
2023-02-23T14:52:25.068Z,97937.44
2023-02-23T14:54:52.711Z,97922.97
2023-02-23T14:57:25.488Z,97915.50
2023-02-23T14:59:59.650Z,97921.03
2023-02-23T15:02:28.720Z,97925.72
2023-02-23T15:04:56.349Z,97927.66
2023-02-23T15:07:38.360Z,97925.72
2023-02-23T15:10:12.652Z,97930.41
2023-02-23T15:12:39.456Z,97940.22
2023-02-23T15:15:17.528Z,97935.13
2023-02-23T15:17:47.788Z,97939.81
2023-02-23T15:20:18.549Z,97937.47
2023-02-23T15:22:53.854Z,97934.72
2023-02-23T15:25:41.169Z,97938.25
2023-02-23T15:28:34.562Z,97939.03
2023-02-23T15:31:02.743Z,97945.31
2023-02-23T15:33:29.375Z,97948.84
2023-02-23T15:36:15.485Z,97950.00
2023-02-23T15:38:49.620Z,97948.03
2023-02-23T15:41:29.895Z,97939.81
2023-02-23T15:46:41.619Z,97938.25
2023-02-23T15:49:12.599Z,97943.72
2023-02-23T15:54:26.086Z,97953.50
2023-02-23T15:56:57.804Z,97949.59
2023-02-23T15:59:30.975Z,97948.41
2023-02-23T16:02:00.337Z,97946.84
2023-02-23T16:04:32.729Z,97945.66
2023-02-23T16:07:16.467Z,97954.66
2023-02-23T16:09:51.581Z,97948.38
2023-02-23T16:12:22.204Z,97960.50
2023-02-23T16:14:55.732Z,97961.25
2023-02-23T16:17:28.438Z,97960.88
2023-02-23T16:20:11.329Z,97954.59
2023-02-23T16:22:40.052Z,97960.47
2023-02-23T16:25:12.553Z,97957.72
2023-02-23T16:27:39.480Z,97955.41
2023-02-23T16:30:34.282Z,97959.28
2023-02-23T16:33:05.853Z,97956.56
2023-02-23T16:35:39.612Z,97960.84
2023-02-23T16:38:22.547Z,97962.41
2023-02-23T16:40:49.176Z,97958.44
2023-02-23T16:43:15.899Z,97952.97
2023-02-23T16:45:43.805Z,97951.38
2023-02-23T16:48:15.322Z,97953.69
2023-02-23T16:50:42.609Z,97946.66
2023-02-23T16:53:11.377Z,97948.94
2023-02-23T16:55:40.982Z,97952.84
2023-02-23T16:58:15.290Z,97941.94
2023-02-23T17:00:43.567Z,97955.63
2023-02-23T17:03:30.420Z,97952.06
2023-02-23T17:05:57.188Z,97955.16
2023-02-23T17:08:24.566Z,97957.13
2023-02-23T17:10:54.354Z,97959.91
2023-02-23T17:13:26.415Z,97963.78
2023-02-23T17:15:56.301Z,97965.34
2023-02-23T17:21:14.476Z,97963.31
2023-02-23T17:23:51.316Z,97969.97
2023-02-23T17:26:21.173Z,97962.91
2023-02-23T17:28:48.555Z,97968.38
2023-02-23T17:31:17.446Z,97963.66
2023-02-23T17:33:45.392Z,97966.75
2023-02-23T17:36:14.513Z,97972.19
2023-02-23T17:38:44.668Z,97962.06
2023-02-23T17:41:16.784Z,97965.16
2023-02-23T17:43:43.671Z,97964.34
2023-02-23T17:46:10.679Z,97970.97
2023-02-23T17:51:10.275Z,97974.06
2023-02-23T17:53:37.032Z,97976.38
2023-02-23T17:56:04.460Z,97975.66
2023-02-23T17:58:31.153Z,97977.56
2023-02-23T18:00:59.833Z,97973.28
2023-02-23T18:03:32.179Z,97980.63
2023-02-23T18:06:04.238Z,97985.69
2023-02-23T18:08:31.234Z,97979.88
2023-02-23T18:10:58.494Z,97981.78
2023-02-23T18:13:26.527Z,97994.66
2023-02-23T18:15:55.894Z,97988.78
2023-02-23T18:18:24.185Z,97987.25
2023-02-23T18:21:00.502Z,97989.19
2023-02-23T18:23:36.002Z,97995.44
2023-02-23T18:26:14.709Z,97987.22
2023-02-23T18:28:44.454Z,97987.22
2023-02-23T18:31:15.792Z,97994.22
2023-02-23T18:33:42.708Z,97993.47
2023-02-23T18:36:17.782Z,97992.25
2023-02-23T18:38:44.506Z,97980.06
2023-02-23T18:41:11.817Z,97986.63
2023-02-23T18:43:38.501Z,97974.88
2023-02-23T18:46:07.308Z,97972.94
2023-02-23T18:48:34.021Z,97977.66
2023-02-23T18:51:00.547Z,97971.75
2023-02-23T18:53:27.597Z,97976.38
2023-02-23T18:58:27.829Z,97978.25
2023-02-23T19:00:55.202Z,97976.28
2023-02-23T19:03:21.846Z,97973.13
2023-02-23T19:05:53.061Z,97968.06
2023-02-23T19:08:20.691Z,97973.00
2023-02-23T19:10:48.552Z,97979.22
2023-02-23T19:13:15.407Z,97973.75
2023-02-23T19:15:43.797Z,97970.19
2023-02-23T19:18:10.381Z,97967.41
2023-02-23T19:23:10.091Z,97970.78
2023-02-23T19:25:36.671Z,97968.47
2023-02-23T19:28:03.179Z,97969.63
2023-02-23T19:30:29.739Z,97966.88
2023-02-23T19:32:57.290Z,97973.16
2023-02-23T19:35:25.115Z,97974.41
2023-02-23T19:37:52.950Z,97973.69
2023-02-23T19:40:22.806Z,97973.66
2023-02-23T19:42:51.206Z,97971.16
2023-02-23T19:45:18.374Z,97962.50
2023-02-23T19:47:45.118Z,97967.22
2023-02-23T19:50:13.296Z,97968.72
2023-02-23T19:52:39.898Z,97969.91
2023-02-23T19:57:38.960Z,97962.84
2023-02-23T20:00:11.695Z,97960.44
2023-02-23T20:02:42.800Z,97972.03
2023-02-23T20:05:13.714Z,97970.88
2023-02-23T20:07:40.375Z,97975.44
2023-02-23T20:10:08.501Z,97972.38
2023-02-23T20:12:36.010Z,97974.72
2023-02-23T20:15:03.426Z,97967.91
2023-02-23T20:17:30.002Z,97969.47
2023-02-23T20:19:56.585Z,97966.00
2023-02-23T20:22:23.740Z,97972.53
2023-02-23T20:24:50.295Z,97971.78
2023-02-23T20:27:16.863Z,97974.84
2023-02-23T20:29:44.296Z,97967.81
2023-02-23T20:32:11.058Z,97963.72
2023-02-23T20:34:39.279Z,97971.84
2023-02-23T20:37:05.790Z,97972.41
2023-02-23T20:39:32.484Z,97970.06
2023-02-23T20:41:59.086Z,97976.22
2023-02-23T20:44:26.082Z,97970.78
2023-02-23T20:46:52.666Z,97971.34
2023-02-23T20:49:19.272Z,97966.72
2023-02-23T20:51:48.592Z,97969.09
2023-02-23T20:54:16.037Z,97972.78
2023-02-23T20:56:43.545Z,97976.41
2023-02-23T20:59:13.407Z,97971.78
2023-02-23T21:01:41.648Z,97967.16
2023-02-23T21:04:08.923Z,97967.91
2023-02-23T21:06:35.700Z,97967.78
2023-02-23T21:09:17.164Z,97964.41
2023-02-23T21:11:48.182Z,97967.38
2023-02-23T21:14:15.587Z,97961.09
2023-02-23T21:16:46.554Z,97954.75
2023-02-23T21:19:14.418Z,97954.81
2023-02-23T21:21:46.498Z,97960.34
2023-02-23T21:24:15.108Z,97959.53
2023-02-23T21:26:42.602Z,97958.00
2023-02-23T21:29:11.878Z,97956.28
2023-02-23T21:34:19.228Z,97951.22
2023-02-23T21:36:46.569Z,97959.31
2023-02-23T21:39:13.110Z,97955.75
2023-02-23T21:41:39.719Z,97958.38
2023-02-23T21:44:08.182Z,97953.41
2023-02-23T21:46:34.946Z,97953.47
2023-02-23T21:49:07.377Z,97949.25
2023-02-23T21:51:34.827Z,97944.44
2023-02-23T21:54:01.412Z,97949.53
2023-02-23T21:59:02.694Z,97940.25
2023-02-23T22:01:36.637Z,97944.56
2023-02-23T22:04:05.281Z,97937.19
2023-02-23T22:06:38.400Z,97945.38
2023-02-23T22:11:42.584Z,97944.56
2023-02-23T22:14:11.323Z,97942.56
2023-02-23T22:16:39.914Z,97943.78
2023-02-23T22:19:07.157Z,97954.28
2023-02-23T22:21:37.478Z,97950.09
2023-02-23T22:24:05.593Z,97953.94
2023-02-23T22:26:34.591Z,97951.53
2023-02-23T22:29:01.285Z,97940.25
2023-02-23T22:33:59.761Z,97936.81
2023-02-23T22:36:26.331Z,97943.81
2023-02-23T22:38:52.893Z,97941.88
2023-02-23T22:41:19.744Z,97940.69
2023-02-23T22:43:47.183Z,97936.81
2023-02-23T22:46:15.496Z,97946.22
2023-02-23T22:48:45.084Z,97946.56
2023-02-23T22:51:13.689Z,97934.16
2023-02-23T22:53:40.583Z,97942.31
2023-02-23T22:56:08.528Z,97939.66
2023-02-23T22:58:36.362Z,97925.22
2023-02-23T23:01:06.132Z,97925.69
2023-02-23T23:03:47.667Z,97920.63
2023-02-23T23:06:16.843Z,97925.31
2023-02-23T23:08:45.613Z,97920.72
2023-02-23T23:11:18.865Z,97920.66
2023-02-23T23:13:48.573Z,97922.63
2023-02-23T23:16:30.594Z,97926.19
2023-02-23T23:19:12.202Z,97918.31
2023-02-23T23:21:40.909Z,97917.16
2023-02-23T23:24:08.083Z,97915.16
2023-02-23T23:26:39.722Z,97909.25
2023-02-23T23:29:10.340Z,97901.03
2023-02-23T23:34:22.299Z,97894.84
2023-02-23T23:36:49.930Z,97891.38
2023-02-23T23:39:20.461Z,97883.53
2023-02-23T23:41:50.803Z,97892.81
2023-02-23T23:44:20.062Z,97889.41
2023-02-23T23:49:26.003Z,97884.53
2023-02-23T23:51:56.398Z,97884.22
2023-02-23T23:54:31.111Z,97889.22
2023-02-23T23:57:01.584Z,97883.00
